createdAt,value
2023-06-13T00:00:17.102Z,8.09
2023-06-13T00:02:47.629Z,7.70
2023-06-13T00:05:22.629Z,8.06
2023-06-13T00:07:55.370Z,7.82
2023-06-13T00:10:25.424Z,7.48
2023-06-13T00:12:55.461Z,7.74
2023-06-13T00:15:27.456Z,8.08
2023-06-13T00:17:58.462Z,7.74
2023-06-13T00:20:30.936Z,7.70
2023-06-13T00:23:05.318Z,8.41
2023-06-13T00:25:35.299Z,7.96
2023-06-13T00:28:05.727Z,7.55
2023-06-13T00:30:35.726Z,7.87
2023-06-13T00:33:06.043Z,7.88
2023-06-13T00:35:36.417Z,7.84
2023-06-13T00:38:09.973Z,7.50
2023-06-13T00:40:40.107Z,7.35
2023-06-13T00:43:13.418Z,7.99
2023-06-13T00:45:43.377Z,7.84
2023-06-13T00:48:14.007Z,7.49
2023-06-13T00:50:45.051Z,7.10
2023-06-13T00:53:20.871Z,7.30
2023-06-13T00:55:53.258Z,7.39
2023-06-13T00:58:24.236Z,7.32
2023-06-13T01:00:56.605Z,7.53
2023-06-13T01:03:26.631Z,7.28
2023-06-13T01:05:56.657Z,6.97
2023-06-13T01:08:32.054Z,7.25
2023-06-13T01:11:11.229Z,7.39
2023-06-13T01:13:49.892Z,6.98
2023-06-13T01:16:29.880Z,7.05
2023-06-13T01:19:04.456Z,6.78
2023-06-13T01:21:38.379Z,6.88
2023-06-13T01:24:22.528Z,7.14
2023-06-13T01:26:58.245Z,7.08
2023-06-13T01:29:28.751Z,6.87
2023-06-13T01:32:00.931Z,6.59
2023-06-13T01:34:31.736Z,6.74
2023-06-13T01:37:02.206Z,6.69
2023-06-13T01:39:32.784Z,6.42
2023-06-13T01:42:08.215Z,6.81
2023-06-13T01:44:38.971Z,7.22
2023-06-13T01:47:22.631Z,7.14
2023-06-13T01:50:06.142Z,6.90
2023-06-13T01:52:45.287Z,6.98
2023-06-13T01:55:20.528Z,6.80
2023-06-13T01:58:01.442Z,7.06
2023-06-13T02:00:32.405Z,6.76
2023-06-13T02:03:05.246Z,6.85
2023-06-13T02:05:35.381Z,7.02
2023-06-13T02:08:05.456Z,7.13
2023-06-13T02:10:35.764Z,6.87
2023-06-13T02:13:09.294Z,6.75
2023-06-13T02:15:39.268Z,6.94
2023-06-13T02:18:10.463Z,7.00
2023-06-13T02:20:42.027Z,6.96
2023-06-13T02:23:13.928Z,6.88
2023-06-13T02:25:44.749Z,6.89
2023-06-13T02:28:17.423Z,6.63
2023-06-13T02:30:51.517Z,6.86
2023-06-13T02:33:21.924Z,6.56
2023-06-13T02:35:51.956Z,6.38
2023-06-13T02:38:22.675Z,6.87
2023-06-13T02:40:52.932Z,6.58
2023-06-13T02:43:26.270Z,7.17
2023-06-13T02:45:56.549Z,6.99
2023-06-13T02:48:27.514Z,6.55
2023-06-13T02:50:58.617Z,6.75
2023-06-13T02:53:28.621Z,6.89
2023-06-13T02:55:58.684Z,7.05
2023-06-13T02:58:31.215Z,6.67
2023-06-13T03:01:01.246Z,6.81
2023-06-13T03:03:31.433Z,6.83
2023-06-13T03:06:03.705Z,7.01
2023-06-13T03:08:39.732Z,6.80
2023-06-13T03:11:13.740Z,6.60
2023-06-13T03:13:47.822Z,6.63
2023-06-13T03:16:19.216Z,6.66
2023-06-13T03:18:51.553Z,6.93
2023-06-13T03:21:21.658Z,6.75
2023-06-13T03:23:51.958Z,7.31
2023-06-13T03:26:22.459Z,7.50
2023-06-13T03:28:55.345Z,6.85
2023-06-13T03:31:25.531Z,7.42
2023-06-13T03:33:56.730Z,6.99
2023-06-13T03:36:28.157Z,7.38
2023-06-13T03:39:00.870Z,7.08
2023-06-13T03:41:32.163Z,6.74
2023-06-13T03:44:04.762Z,6.79
2023-06-13T03:46:34.828Z,7.43
2023-06-13T03:49:04.934Z,8.73
2023-06-13T03:51:34.997Z,8.49
2023-06-13T03:54:07.279Z,8.31
2023-06-13T03:56:37.257Z,7.91
2023-06-13T03:59:09.861Z,7.81
2023-06-13T04:01:42.412Z,7.75
2023-06-13T04:04:12.726Z,9.19
2023-06-13T04:06:48.664Z,8.53
2023-06-13T04:09:21.108Z,7.58
2023-06-13T04:11:51.165Z,6.91
2023-06-13T04:14:23.702Z,7.33
2023-06-13T04:16:54.057Z,7.89
2023-06-13T04:19:24.826Z,7.84
2023-06-13T04:21:55.691Z,7.96
2023-06-13T04:24:27.812Z,7.64
2023-06-13T04:26:57.854Z,6.98
2023-06-13T04:29:31.223Z,7.18
2023-06-13T04:32:03.968Z,7.06
2023-06-13T04:34:34.753Z,7.51
2023-06-13T04:37:05.081Z,7.81
2023-06-13T04:39:38.368Z,7.68
2023-06-13T04:42:15.648Z,7.67
2023-06-13T04:44:49.402Z,7.24
2023-06-13T04:47:19.357Z,7.21
2023-06-13T04:49:49.681Z,7.08
2023-06-13T04:52:21.691Z,7.46
2023-06-13T04:54:53.372Z,8.67
2023-06-13T04:57:23.313Z,8.50
2023-06-13T04:59:55.891Z,7.41
2023-06-13T05:02:26.778Z,6.90
2023-06-13T05:04:57.024Z,7.18
2023-06-13T05:07:29.897Z,7.20
2023-06-13T05:09:59.984Z,7.37
2023-06-13T05:12:30.572Z,6.70
2023-06-13T05:15:03.520Z,7.02
2023-06-13T05:17:35.026Z,7.01
2023-06-13T05:20:05.475Z,7.51
2023-06-13T05:22:35.962Z,6.43
2023-06-13T05:25:10.146Z,6.55
2023-06-13T05:27:40.138Z,7.14
2023-06-13T05:30:13.831Z,6.34
2023-06-13T05:32:44.080Z,6.76
2023-06-13T05:35:14.261Z,6.82
2023-06-13T05:37:45.149Z,6.85
2023-06-13T05:40:18.447Z,6.67
2023-06-13T05:42:48.643Z,7.14
2023-06-13T05:45:21.306Z,7.28
2023-06-13T05:47:51.725Z,7.30
2023-06-13T05:50:22.150Z,7.19
2023-06-13T05:52:52.201Z,6.96
2023-06-13T05:55:22.405Z,6.38
2023-06-13T05:57:52.570Z,6.56
2023-06-13T06:00:25.568Z,6.76
2023-06-13T06:02:56.062Z,6.79
2023-06-13T06:05:26.640Z,6.89
2023-06-13T06:07:56.709Z,6.83
2023-06-13T06:10:26.845Z,6.79
2023-06-13T06:12:56.881Z,6.68
2023-06-13T06:15:29.582Z,6.10
2023-06-13T06:17:59.814Z,5.87
2023-06-13T06:20:30.265Z,6.04
2023-06-13T06:23:00.318Z,6.17
2023-06-13T06:25:30.379Z,5.91
2023-06-13T06:28:02.623Z,7.00
2023-06-13T06:30:36.810Z,7.85
2023-06-13T06:33:07.090Z,6.08
2023-06-13T06:35:37.110Z,5.80
2023-06-13T06:38:07.132Z,5.46
2023-06-13T06:40:37.086Z,5.43
2023-06-13T06:43:07.104Z,5.66
2023-06-13T06:45:41.672Z,6.39
2023-06-13T06:48:11.928Z,5.77
2023-06-13T06:50:41.932Z,5.82
2023-06-13T06:53:11.993Z,5.92
2023-06-13T06:55:42.041Z,5.62
2023-06-13T06:58:12.320Z,5.44
2023-06-13T07:00:45.015Z,5.02
2023-06-13T07:03:15.315Z,5.05
2023-06-13T07:05:45.430Z,5.44
2023-06-13T07:08:15.463Z,5.71
2023-06-13T07:10:45.546Z,5.53
2023-06-13T07:13:15.596Z,5.39
2023-06-13T07:15:48.264Z,4.93
2023-06-13T07:18:18.596Z,5.32
2023-06-13T07:20:48.828Z,5.33
2023-06-13T07:23:18.881Z,5.49
2023-06-13T07:25:48.972Z,5.24
2023-06-13T07:28:18.985Z,5.40
2023-06-13T07:30:51.727Z,5.68
2023-06-13T07:33:22.054Z,5.38
2023-06-13T07:35:54.183Z,5.54
2023-06-13T07:38:24.391Z,5.86
2023-06-13T07:40:54.814Z,5.72
2023-06-13T07:43:24.900Z,5.85
2023-06-13T07:45:57.593Z,5.43
2023-06-13T07:48:28.666Z,6.08
2023-06-13T07:50:58.795Z,5.59
2023-06-13T07:53:29.314Z,5.30
2023-06-13T07:55:59.417Z,6.00
2023-06-13T07:58:29.496Z,5.55
2023-06-13T08:01:02.184Z,5.39
2023-06-13T08:03:32.474Z,5.58
2023-06-13T08:06:02.610Z,5.18
2023-06-13T08:08:33.357Z,4.86
2023-06-13T08:11:03.371Z,6.00
2023-06-13T08:13:33.585Z,6.11
2023-06-13T08:16:07.395Z,7.63
2023-06-13T08:18:38.429Z,5.63
2023-06-13T08:21:08.467Z,5.46
2023-06-13T08:23:38.541Z,5.10
2023-06-13T08:26:08.731Z,5.20
2023-06-13T08:28:38.803Z,5.33
2023-06-13T08:31:39.460Z,5.34
2023-06-13T08:34:09.773Z,5.27
2023-06-13T08:36:41.237Z,5.76
2023-06-13T08:39:11.386Z,5.39
2023-06-13T08:41:42.825Z,5.71
2023-06-13T08:44:13.539Z,5.77
2023-06-13T08:46:46.251Z,5.36
2023-06-13T08:49:16.838Z,5.15
2023-06-13T08:51:52.612Z,5.09
2023-06-13T08:54:24.745Z,5.13
2023-06-13T08:56:57.933Z,5.16
2023-06-13T08:59:31.579Z,5.13
2023-06-13T09:02:07.092Z,5.40
2023-06-13T09:04:40.504Z,5.24
2023-06-13T09:07:11.613Z,5.43
2023-06-13T09:09:43.012Z,5.34
2023-06-13T09:12:16.823Z,6.29
2023-06-13T09:14:48.122Z,5.91
2023-06-13T09:17:21.150Z,5.68
2023-06-13T09:19:51.880Z,6.10
2023-06-13T09:22:22.929Z,5.64
2023-06-13T09:24:54.339Z,5.36
2023-06-13T09:27:25.577Z,5.20
2023-06-13T09:29:55.622Z,5.32
2023-06-13T09:32:28.565Z,5.53
2023-06-13T09:34:59.006Z,5.61
2023-06-13T09:37:29.227Z,5.91
2023-06-13T09:43:03.963Z,5.59
2023-06-13T09:45:36.024Z,5.19
2023-06-13T09:48:09.647Z,5.69
2023-06-13T09:50:41.722Z,5.57
2023-06-13T09:53:12.091Z,6.01
2023-06-13T09:55:42.389Z,5.55
2023-06-13T09:58:30.716Z,7.58
2023-06-13T10:01:04.726Z,6.39
2023-06-13T10:03:37.568Z,7.12
2023-06-13T10:06:07.905Z,5.65
2023-06-13T10:08:38.044Z,6.05
2023-06-13T10:11:12.728Z,5.59
2023-06-13T10:13:50.641Z,5.76
2023-06-13T10:16:23.835Z,5.81
2023-06-13T10:18:59.559Z,5.66
2023-06-13T10:21:40.363Z,5.63
2023-06-13T10:24:19.475Z,5.41
2023-06-13T10:26:50.609Z,5.58
2023-06-13T10:29:40.789Z,6.03
2023-06-13T10:32:33.835Z,5.76
2023-06-13T10:35:31.925Z,5.96
2023-06-13T10:38:27.955Z,6.14
2023-06-13T10:41:21.063Z,5.69
2023-06-13T10:43:57.429Z,5.98
2023-06-13T10:46:28.245Z,5.96
2023-06-13T10:48:58.290Z,5.65
2023-06-13T10:51:34.614Z,5.89
2023-06-13T10:54:12.467Z,6.38
2023-06-13T10:56:45.268Z,6.23
2023-06-13T10:59:18.246Z,5.65
2023-06-13T11:01:48.768Z,6.64
2023-06-13T11:04:21.231Z,6.14
2023-06-13T11:06:55.871Z,5.78
2023-06-13T11:09:28.082Z,6.11
2023-06-13T11:12:00.038Z,6.32
2023-06-13T11:14:32.380Z,5.78
2023-06-13T11:17:02.723Z,5.91
2023-06-13T11:19:36.263Z,6.52
2023-06-13T11:22:17.546Z,6.79
2023-06-13T11:24:47.646Z,6.21
2023-06-13T11:27:18.354Z,6.68
2023-06-13T11:29:48.584Z,5.78
2023-06-13T11:32:20.174Z,5.80
2023-06-13T11:34:56.270Z,6.01
2023-06-13T11:37:35.296Z,10.96
2023-06-13T11:40:19.013Z,10.14
2023-06-13T11:42:49.935Z,6.33
2023-06-13T11:45:20.652Z,6.47
2023-06-13T11:47:51.396Z,5.99
2023-06-13T11:50:27.161Z,5.58
2023-06-13T11:53:09.461Z,6.20
2023-06-13T11:55:41.004Z,5.84
2023-06-13T11:58:11.029Z,5.91
2023-06-13T12:00:55.001Z,5.95
2023-06-13T12:03:26.911Z,5.93
2023-06-13T12:05:58.933Z,5.84
2023-06-13T12:08:31.725Z,5.61
2023-06-13T12:11:04.474Z,5.69
2023-06-13T12:13:39.746Z,5.80
2023-06-13T12:16:10.297Z,6.01
2023-06-13T12:18:40.342Z,5.50
2023-06-13T12:21:10.906Z,5.76
2023-06-13T12:23:43.788Z,5.96
2023-06-13T12:26:14.322Z,5.69
2023-06-13T12:28:45.921Z,5.84
2023-06-13T12:31:15.980Z,5.70
2023-06-13T12:33:46.126Z,5.42
2023-06-13T12:36:18.814Z,5.96
2023-06-13T12:38:52.456Z,6.08
2023-06-13T12:41:27.186Z,5.64
2023-06-13T12:43:57.238Z,5.41
2023-06-13T12:46:27.354Z,5.54
2023-06-13T12:48:59.107Z,5.33
2023-06-13T12:51:32.695Z,5.60
2023-06-13T12:54:14.850Z,5.86
2023-06-13T12:56:55.827Z,5.52
2023-06-13T12:59:32.996Z,5.34
2023-06-13T13:02:03.850Z,5.86
2023-06-13T13:04:35.778Z,5.30
2023-06-13T13:07:06.865Z,5.91
2023-06-13T13:09:41.571Z,5.39
2023-06-13T13:12:15.351Z,5.49
2023-06-13T13:14:46.020Z,5.64
2023-06-13T13:17:16.164Z,6.63
2023-06-13T13:19:47.110Z,6.38
2023-06-13T13:22:17.419Z,5.93
2023-06-13T13:24:50.192Z,5.89
2023-06-13T13:27:20.798Z,6.08
2023-06-13T13:29:50.947Z,8.46
2023-06-13T13:32:20.901Z,6.64
2023-06-13T13:34:51.129Z,5.99
2023-06-13T13:37:21.178Z,5.76
2023-06-13T13:39:53.836Z,6.01
2023-06-13T13:42:26.546Z,6.18
2023-06-13T13:44:57.389Z,6.49
2023-06-13T13:47:27.910Z,6.92
2023-06-13T13:49:58.660Z,5.62
2023-06-13T13:52:29.448Z,5.79
2023-06-13T13:55:02.104Z,5.65
2023-06-13T13:57:32.098Z,6.48
2023-06-13T14:00:03.754Z,5.73
2023-06-13T14:02:35.571Z,6.03
2023-06-13T14:05:05.719Z,5.89
2023-06-13T14:07:36.427Z,6.24
2023-06-13T14:10:10.137Z,5.95
2023-06-13T14:12:40.120Z,6.14
2023-06-13T14:15:11.023Z,5.94
2023-06-13T14:17:41.099Z,6.08
2023-06-13T14:20:14.066Z,5.90
2023-06-13T14:22:44.458Z,6.09
2023-06-13T14:25:17.128Z,5.88
2023-06-13T14:27:47.235Z,6.60
2023-06-13T14:30:18.631Z,7.04
2023-06-13T14:32:48.968Z,6.19
2023-06-13T14:35:19.982Z,5.79
2023-06-13T14:37:50.351Z,6.15
2023-06-13T14:40:23.091Z,6.50
2023-06-13T14:42:53.135Z,6.26
2023-06-13T14:45:23.287Z,6.46
2023-06-13T14:47:55.408Z,6.38
2023-06-13T14:50:25.963Z,5.98
2023-06-13T14:52:56.216Z,5.94
2023-06-13T14:55:28.972Z,6.33
2023-06-13T14:57:59.189Z,6.04
2023-06-13T15:00:29.253Z,6.40
2023-06-13T15:03:00.294Z,6.61
2023-06-13T15:05:30.365Z,6.25
2023-06-13T15:08:01.215Z,6.26
2023-06-13T15:10:34.292Z,5.97
2023-06-13T15:13:04.300Z,6.17
2023-06-13T15:15:34.403Z,6.22
2023-06-13T15:18:04.620Z,7.04
2023-06-13T15:20:35.301Z,6.05
2023-06-13T15:23:05.516Z,5.90
2023-06-13T15:25:38.256Z,6.19
2023-06-13T15:28:08.561Z,6.60
2023-06-13T15:30:38.536Z,5.91
2023-06-13T15:33:08.621Z,6.41
2023-06-13T15:35:38.894Z,6.32
2023-06-13T15:38:10.333Z,5.91
2023-06-13T15:40:42.932Z,5.85
2023-06-13T15:43:13.026Z,5.80
2023-06-13T15:45:43.561Z,5.98
2023-06-13T15:48:13.620Z,6.26
2023-06-13T15:50:44.676Z,5.83
2023-06-13T15:53:16.490Z,5.81
2023-06-13T15:55:49.141Z,5.90
2023-06-13T15:58:19.328Z,5.68
2023-06-13T16:00:49.428Z,5.88
2023-06-13T16:03:19.592Z,5.87
2023-06-13T16:05:49.659Z,6.39
2023-06-13T16:08:19.744Z,5.70
2023-06-13T16:10:52.361Z,5.79
2023-06-13T16:13:25.271Z,5.70
2023-06-13T16:15:55.353Z,5.94
2023-06-13T16:18:25.379Z,5.83
2023-06-13T16:20:55.558Z,6.19
2023-06-13T16:23:25.628Z,6.01
2023-06-13T16:25:58.321Z,6.02
2023-06-13T16:28:28.352Z,5.77
2023-06-13T16:30:58.427Z,5.69
2023-06-13T16:33:28.694Z,5.64
2023-06-13T16:35:58.793Z,5.51
2023-06-13T16:38:30.216Z,5.76
2023-06-13T16:41:06.527Z,5.56
2023-06-13T16:43:38.416Z,5.60
2023-06-13T16:46:08.592Z,5.46
2023-06-13T16:48:38.853Z,5.67
2023-06-13T16:51:08.915Z,5.59
2023-06-13T16:53:39.005Z,5.70
2023-06-13T16:56:11.926Z,5.84
2023-06-13T16:58:42.040Z,6.01
2023-06-13T17:01:12.205Z,5.70
2023-06-13T17:03:42.366Z,5.56
2023-06-13T17:06:12.514Z,5.89
2023-06-13T17:08:42.545Z,5.84
2023-06-13T17:11:15.195Z,5.93
2023-06-13T17:13:46.785Z,6.03
2023-06-13T17:16:17.648Z,5.91
2023-06-13T17:18:47.820Z,6.17
2023-06-13T17:21:17.995Z,5.63
2023-06-13T17:23:48.097Z,5.74
2023-06-13T17:26:20.868Z,6.20
2023-06-13T17:28:51.247Z,6.03
2023-06-13T17:31:21.384Z,5.96
2023-06-13T17:33:51.710Z,6.18
2023-06-13T17:36:22.505Z,6.13
2023-06-13T17:38:52.680Z,5.89
2023-06-13T17:41:26.340Z,6.10
2023-06-13T17:43:56.368Z,6.13
2023-06-13T17:46:26.974Z,6.03
2023-06-13T17:48:57.124Z,6.09
2023-06-13T17:51:27.262Z,5.87
2023-06-13T17:53:57.703Z,6.23
2023-06-13T17:56:30.802Z,5.92
2023-06-13T17:59:00.920Z,6.35
2023-06-13T18:01:31.142Z,6.62
2023-06-13T18:04:01.298Z,6.20
2023-06-13T18:06:31.486Z,6.32
2023-06-13T18:09:01.568Z,6.15
2023-06-13T18:11:35.211Z,6.17
2023-06-13T18:14:09.176Z,6.52
2023-06-13T18:16:39.820Z,6.52
2023-06-13T18:19:10.645Z,6.15
2023-06-13T18:21:40.704Z,5.76
2023-06-13T18:24:11.006Z,6.09
2023-06-13T18:26:43.862Z,6.62
2023-06-13T18:29:13.912Z,6.65
2023-06-13T18:31:44.047Z,6.58
2023-06-13T18:34:14.086Z,6.49
2023-06-13T18:36:44.136Z,7.06
2023-06-13T18:39:14.147Z,6.19
2023-06-13T18:41:47.270Z,6.47
2023-06-13T18:44:17.397Z,7.13
2023-06-13T18:46:47.427Z,6.67
2023-06-13T18:49:17.630Z,6.17
2023-06-13T18:51:51.650Z,6.24
2023-06-13T18:54:21.762Z,6.38
2023-06-13T18:56:54.414Z,6.28
2023-06-13T18:59:24.468Z,6.55
2023-06-13T19:01:55.648Z,7.28
2023-06-13T19:04:27.909Z,7.13
2023-06-13T19:06:58.008Z,7.44
2023-06-13T19:09:28.075Z,6.87
2023-06-13T19:12:00.892Z,7.12
2023-06-13T19:14:31.200Z,7.24
2023-06-13T19:17:01.394Z,7.30
2023-06-13T19:19:31.512Z,6.66
2023-06-13T19:22:02.668Z,6.98
2023-06-13T19:24:33.220Z,7.05
2023-06-13T19:27:06.159Z,7.34
2023-06-13T19:29:37.716Z,7.46
2023-06-13T19:32:09.006Z,7.43
2023-06-13T19:34:39.020Z,7.49
2023-06-13T19:37:09.156Z,8.21
2023-06-13T19:39:39.301Z,7.53
2023-06-13T19:42:13.006Z,7.78
2023-06-13T19:44:43.569Z,8.32
2023-06-13T19:47:14.107Z,7.16
2023-06-13T19:49:45.556Z,7.46
2023-06-13T19:52:15.978Z,7.71
2023-06-13T19:54:47.825Z,8.21
2023-06-13T19:57:20.634Z,7.52
2023-06-13T19:59:51.976Z,7.45
2023-06-13T20:02:22.715Z,7.50
2023-06-13T20:04:53.146Z,6.50
2023-06-13T20:07:23.346Z,7.19
2023-06-13T20:09:53.569Z,7.03
2023-06-13T20:12:26.227Z,7.18
2023-06-13T20:14:56.291Z,6.48
2023-06-13T20:17:28.050Z,7.16
2023-06-13T20:19:58.351Z,6.42
2023-06-13T20:22:28.375Z,6.85
2023-06-13T20:24:58.427Z,7.32
2023-06-13T20:27:31.110Z,7.14
2023-06-13T20:30:01.783Z,7.04
2023-06-13T20:32:31.944Z,7.41
2023-06-13T20:35:02.037Z,8.14
2023-06-13T20:37:32.377Z,7.21
2023-06-13T20:40:05.843Z,7.58
2023-06-13T20:42:41.915Z,7.96
2023-06-13T20:45:16.145Z,7.35
2023-06-13T20:47:48.406Z,7.38
2023-06-13T20:50:19.156Z,7.76
2023-06-13T20:52:49.278Z,8.38
2023-06-13T20:55:21.428Z,8.24
2023-06-13T20:57:54.230Z,8.49
2023-06-13T21:00:27.414Z,7.78
2023-06-13T21:02:58.714Z,8.12
2023-06-13T21:05:30.826Z,8.09
2023-06-13T21:08:01.106Z,8.82
2023-06-13T21:10:32.036Z,8.46
2023-06-13T21:13:04.698Z,7.64
2023-06-13T21:15:34.714Z,8.27
2023-06-13T21:18:06.167Z,8.17
2023-06-13T21:20:36.501Z,7.87
2023-06-13T21:23:06.745Z,7.26
2023-06-13T21:25:36.871Z,7.39
2023-06-13T21:28:09.686Z,7.22
2023-06-13T21:30:39.947Z,7.02
2023-06-13T21:33:10.409Z,7.15
2023-06-13T21:35:40.646Z,7.21
2023-06-13T21:38:11.320Z,6.77
2023-06-13T21:40:41.372Z,7.12
2023-06-13T21:43:13.986Z,6.66
2023-06-13T21:45:44.131Z,6.56
2023-06-13T21:48:14.140Z,6.78
2023-06-13T21:50:44.213Z,6.57
2023-06-13T21:53:14.285Z,6.86
2023-06-13T21:55:44.687Z,6.34
2023-06-13T21:58:17.464Z,6.67
2023-06-13T22:00:48.126Z,6.71
2023-06-13T22:03:18.337Z,6.95
2023-06-13T22:05:49.282Z,6.98
2023-06-13T22:08:19.994Z,6.73
2023-06-13T22:10:50.069Z,6.96
2023-06-13T22:13:22.738Z,7.11
2023-06-13T22:15:54.057Z,6.40
2023-06-13T22:18:24.782Z,6.28
2023-06-13T22:20:54.977Z,6.94
2023-06-13T22:23:25.018Z,6.92
2023-06-13T22:25:54.983Z,6.78
2023-06-13T22:28:39.318Z,6.69
2023-06-13T22:31:10.175Z,6.89
2023-06-13T22:33:40.193Z,6.60
2023-06-13T22:36:10.311Z,7.10
2023-06-13T22:38:40.364Z,6.93
2023-06-13T22:41:10.694Z,6.94
2023-06-13T22:43:43.338Z,7.02
2023-06-13T22:46:13.391Z,7.35
2023-06-13T22:48:43.467Z,7.96
2023-06-13T22:51:13.509Z,7.28
2023-06-13T22:53:43.568Z,7.46
2023-06-13T22:56:13.765Z,7.34
2023-06-13T22:58:49.717Z,7.21
2023-06-13T23:01:21.678Z,7.43
2023-06-13T23:03:51.937Z,7.66
2023-06-13T23:06:22.059Z,7.26
2023-06-13T23:08:52.093Z,7.41
2023-06-13T23:11:22.568Z,7.56
2023-06-13T23:13:55.430Z,7.23
2023-06-13T23:16:25.644Z,7.17
2023-06-13T23:18:56.128Z,7.41
2023-06-13T23:21:26.319Z,7.31
2023-06-13T23:23:56.497Z,7.21
2023-06-13T23:26:26.780Z,6.82
2023-06-13T23:28:59.832Z,6.94
2023-06-13T23:31:30.083Z,6.94
2023-06-13T23:34:00.214Z,6.83
2023-06-13T23:36:30.781Z,6.78
2023-06-13T23:39:01.493Z,6.74
2023-06-13T23:41:33.962Z,6.77
2023-06-13T23:44:25.873Z,6.84
2023-06-13T23:46:55.892Z,6.79
2023-06-13T23:49:26.002Z,6.85
2023-06-13T23:51:56.029Z,6.98
2023-06-13T23:54:26.101Z,6.46
2023-06-13T23:56:56.252Z,6.32
2023-06-13T23:59:28.848Z,7.07
